sensor_id;sensor_type;location;lat;lon;timestamp;temperature;humidity
25622;DHT22;13487;39.360;22.962;2023-03-05T00:01:37;11.10;99.90
25622;DHT22;13487;39.360;22.962;2023-03-05T00:04:06;11.20;99.90
25622;DHT22;13487;39.360;22.962;2023-03-05T00:06:32;11.20;99.90
25622;DHT22;13487;39.360;22.962;2023-03-05T00:08:59;11.20;99.90
25622;DHT22;13487;39.360;22.962;2023-03-05T00:11:26;11.30;99.90
25622;DHT22;13487;39.360;22.962;2023-03-05T00:13:54;11.30;99.90
25622;DHT22;13487;39.360;22.962;2023-03-05T00:16:21;11.30;99.90
25622;DHT22;13487;39.360;22.962;2023-03-05T00:18:47;11.30;99.90
25622;DHT22;13487;39.360;22.962;2023-03-05T00:21:21;11.30;99.90
25622;DHT22;13487;39.360;22.962;2023-03-05T00:23:47;11.40;99.90
25622;DHT22;13487;39.360;22.962;2023-03-05T00:26:18;11.20;90.50
25622;DHT22;13487;39.360;22.962;2023-03-05T00:28:44;11.20;99.90
25622;DHT22;13487;39.360;22.962;2023-03-05T00:31:15;11.10;95.00
25622;DHT22;13487;39.360;22.962;2023-03-05T00:33:42;10.70;99.90
25622;DHT22;13487;39.360;22.962;2023-03-05T00:36:08;10.40;99.90
25622;DHT22;13487;39.360;22.962;2023-03-05T00:38:34;10.10;99.90
25622;DHT22;13487;39.360;22.962;2023-03-05T00:41:00;10.00;99.90
25622;DHT22;13487;39.360;22.962;2023-03-05T00:43:27;10.00;99.90
25622;DHT22;13487;39.360;22.962;2023-03-05T00:45:52;10.00;99.90
25622;DHT22;13487;39.360;22.962;2023-03-05T00:48:18;10.00;99.90
25622;DHT22;13487;39.360;22.962;2023-03-05T00:50:44;10.10;99.90
25622;DHT22;13487;39.360;22.962;2023-03-05T00:53:10;10.20;99.90
25622;DHT22;13487;39.360;22.962;2023-03-05T00:55:36;10.30;99.90
25622;DHT22;13487;39.360;22.962;2023-03-05T00:58:02;10.30;99.90
25622;DHT22;13487;39.360;22.962;2023-03-05T01:00:27;10.20;99.90
25622;DHT22;13487;39.360;22.962;2023-03-05T01:02:53;10.30;99.90
25622;DHT22;13487;39.360;22.962;2023-03-05T01:05:19;10.30;99.90
25622;DHT22;13487;39.360;22.962;2023-03-05T01:07:45;10.50;99.90
25622;DHT22;13487;39.360;22.962;2023-03-05T01:10:11;10.70;99.90
25622;DHT22;13487;39.360;22.962;2023-03-05T01:12:37;10.70;99.90
25622;DHT22;13487;39.360;22.962;2023-03-05T01:15:03;10.60;99.90
25622;DHT22;13487;39.360;22.962;2023-03-05T01:17:29;10.50;99.90
25622;DHT22;13487;39.360;22.962;2023-03-05T01:19:55;10.50;99.90
25622;DHT22;13487;39.360;22.962;2023-03-05T01:22:21;10.50;99.90
25622;DHT22;13487;39.360;22.962;2023-03-05T01:24:47;10.40;99.90
25622;DHT22;13487;39.360;22.962;2023-03-05T01:27:12;10.30;99.90
25622;DHT22;13487;39.360;22.962;2023-03-05T01:29:38;10.20;99.90
25622;DHT22;13487;39.360;22.962;2023-03-05T01:32:04;10.10;99.90
25622;DHT22;13487;39.360;22.962;2023-03-05T01:34:30;10.10;99.90
25622;DHT22;13487;39.360;22.962;2023-03-05T01:36:55;10.10;99.90
25622;DHT22;13487;39.360;22.962;2023-03-05T01:39:21;10.10;99.90
25622;DHT22;13487;39.360;22.962;2023-03-05T01:41:47;10.50;99.90
25622;DHT22;13487;39.360;22.962;2023-03-05T01:44:21;10.60;99.90
25622;DHT22;13487;39.360;22.962;2023-03-05T01:46:47;10.70;99.90
25622;DHT22;13487;39.360;22.962;2023-03-05T01:49:25;10.80;99.90
25622;DHT22;13487;39.360;22.962;2023-03-05T01:54:32;10.80;99.90
25622;DHT22;13487;39.360;22.962;2023-03-05T01:57:03;10.90;99.90
25622;DHT22;13487;39.360;22.962;2023-03-05T01:59:30;10.90;99.90
25622;DHT22;13487;39.360;22.962;2023-03-05T02:01:57;10.90;99.90
25622;DHT22;13487;39.360;22.962;2023-03-05T02:04:29;11.00;99.90
25622;DHT22;13487;39.360;22.962;2023-03-05T02:06:56;10.90;99.90
25622;DHT22;13487;39.360;22.962;2023-03-05T02:09:24;10.80;99.90
25622;DHT22;13487;39.360;22.962;2023-03-05T02:11:51;10.70;99.90
25622;DHT22;13487;39.360;22.962;2023-03-05T02:14:17;10.70;99.90
25622;DHT22;13487;39.360;22.962;2023-03-05T02:16:45;10.70;99.90
25622;DHT22;13487;39.360;22.962;2023-03-05T02:19:11;10.70;99.90
25622;DHT22;13487;39.360;22.962;2023-03-05T02:21:46;10.60;99.90
25622;DHT22;13487;39.360;22.962;2023-03-05T02:24:14;10.50;99.90
25622;DHT22;13487;39.360;22.962;2023-03-05T02:26:41;10.60;99.90
25622;DHT22;13487;39.360;22.962;2023-03-05T02:29:10;10.70;99.90
25622;DHT22;13487;39.360;22.962;2023-03-05T02:31:37;10.40;99.90
25622;DHT22;13487;39.360;22.962;2023-03-05T02:34:04;10.30;99.90
25622;DHT22;13487;39.360;22.962;2023-03-05T02:36:30;10.20;99.90
25622;DHT22;13487;39.360;22.962;2023-03-05T02:38:55;10.20;99.90
25622;DHT22;13487;39.360;22.962;2023-03-05T02:41:23;10.00;99.90
25622;DHT22;13487;39.360;22.962;2023-03-05T02:43:49;9.90;99.90
25622;DHT22;13487;39.360;22.962;2023-03-05T02:46:15;9.90;99.90
25622;DHT22;13487;39.360;22.962;2023-03-05T02:48:42;9.80;99.90
25622;DHT22;13487;39.360;22.962;2023-03-05T02:51:08;9.70;99.90
25622;DHT22;13487;39.360;22.962;2023-03-05T02:53:34;9.60;99.90
25622;DHT22;13487;39.360;22.962;2023-03-05T02:56:00;9.60;99.90
25622;DHT22;13487;39.360;22.962;2023-03-05T02:58:26;9.60;99.90
25622;DHT22;13487;39.360;22.962;2023-03-05T03:00:51;9.60;99.90
25622;DHT22;13487;39.360;22.962;2023-03-05T03:03:17;9.60;99.90
25622;DHT22;13487;39.360;22.962;2023-03-05T03:05:43;9.60;99.90
25622;DHT22;13487;39.360;22.962;2023-03-05T03:08:08;9.60;99.90
25622;DHT22;13487;39.360;22.962;2023-03-05T03:10:35;9.50;99.90
25622;DHT22;13487;39.360;22.962;2023-03-05T03:13:00;9.60;99.90
25622;DHT22;13487;39.360;22.962;2023-03-05T03:15:26;9.70;99.90
25622;DHT22;13487;39.360;22.962;2023-03-05T03:17:53;9.90;99.90
25622;DHT22;13487;39.360;22.962;2023-03-05T03:20:19;10.00;99.90
25622;DHT22;13487;39.360;22.962;2023-03-05T03:22:45;10.00;99.90
25622;DHT22;13487;39.360;22.962;2023-03-05T03:25:16;10.00;99.90
25622;DHT22;13487;39.360;22.962;2023-03-05T03:27:43;10.00;99.90
25622;DHT22;13487;39.360;22.962;2023-03-05T03:30:09;9.90;99.90
25622;DHT22;13487;39.360;22.962;2023-03-05T03:32:35;9.80;99.90
25622;DHT22;13487;39.360;22.962;2023-03-05T03:35:01;9.60;99.90
25622;DHT22;13487;39.360;22.962;2023-03-05T03:37:28;9.60;99.90
25622;DHT22;13487;39.360;22.962;2023-03-05T03:39:53;9.50;99.90
25622;DHT22;13487;39.360;22.962;2023-03-05T03:42:20;9.60;99.90
25622;DHT22;13487;39.360;22.962;2023-03-05T03:44:47;9.70;99.90
25622;DHT22;13487;39.360;22.962;2023-03-05T03:47:12;9.80;99.90
25622;DHT22;13487;39.360;22.962;2023-03-05T03:49:38;9.80;99.90
25622;DHT22;13487;39.360;22.962;2023-03-05T03:52:05;9.60;99.90
25622;DHT22;13487;39.360;22.962;2023-03-05T03:54:31;9.50;99.90
25622;DHT22;13487;39.360;22.962;2023-03-05T03:56:57;9.70;99.90
25622;DHT22;13487;39.360;22.962;2023-03-05T03:59:22;9.80;99.90
25622;DHT22;13487;39.360;22.962;2023-03-05T04:01:48;10.00;99.90
25622;DHT22;13487;39.360;22.962;2023-03-05T04:04:14;10.10;99.90
25622;DHT22;13487;39.360;22.962;2023-03-05T04:06:40;10.20;99.90
25622;DHT22;13487;39.360;22.962;2023-03-05T04:09:06;10.10;99.90
25622;DHT22;13487;39.360;22.962;2023-03-05T04:11:36;10.10;99.90
25622;DHT22;13487;39.360;22.962;2023-03-05T04:14:03;10.10;99.90
25622;DHT22;13487;39.360;22.962;2023-03-05T04:16:29;10.00;99.90
25622;DHT22;13487;39.360;22.962;2023-03-05T04:18:55;9.90;99.90
25622;DHT22;13487;39.360;22.962;2023-03-05T04:21:21;9.80;99.90
25622;DHT22;13487;39.360;22.962;2023-03-05T04:23:46;9.60;99.90
25622;DHT22;13487;39.360;22.962;2023-03-05T04:26:12;9.60;99.90
25622;DHT22;13487;39.360;22.962;2023-03-05T04:28:38;9.60;99.90
25622;DHT22;13487;39.360;22.962;2023-03-05T04:31:04;9.80;99.90
25622;DHT22;13487;39.360;22.962;2023-03-05T04:33:30;10.00;99.90
25622;DHT22;13487;39.360;22.962;2023-03-05T04:35:56;10.10;99.90
25622;DHT22;13487;39.360;22.962;2023-03-05T04:38:21;10.20;99.90
25622;DHT22;13487;39.360;22.962;2023-03-05T04:40:47;10.40;99.90
25622;DHT22;13487;39.360;22.962;2023-03-05T04:43:13;10.10;98.30
25622;DHT22;13487;39.360;22.962;2023-03-05T04:45:40;10.00;99.90
25622;DHT22;13487;39.360;22.962;2023-03-05T04:48:06;10.20;99.90
25622;DHT22;13487;39.360;22.962;2023-03-05T04:50:32;10.40;99.90
25622;DHT22;13487;39.360;22.962;2023-03-05T04:52:58;10.50;81.50
25622;DHT22;13487;39.360;22.962;2023-03-05T04:55:25;10.50;69.60
25622;DHT22;13487;39.360;22.962;2023-03-05T04:57:51;10.50;39.50
25622;DHT22;13487;39.360;22.962;2023-03-05T05:00:18;10.30;54.10
25622;DHT22;13487;39.360;22.962;2023-03-05T05:02:45;10.10;94.80
25622;DHT22;13487;39.360;22.962;2023-03-05T05:05:14;10.40;99.90
25622;DHT22;13487;39.360;22.962;2023-03-05T05:07:40;10.40;99.90
25622;DHT22;13487;39.360;22.962;2023-03-05T05:10:07;10.50;99.90
25622;DHT22;13487;39.360;22.962;2023-03-05T05:12:34;10.50;90.60
25622;DHT22;13487;39.360;22.962;2023-03-05T05:15:00;10.50;89.70
25622;DHT22;13487;39.360;22.962;2023-03-05T05:17:26;10.60;82.20
25622;DHT22;13487;39.360;22.962;2023-03-05T05:19:55;10.60;82.10
25622;DHT22;13487;39.360;22.962;2023-03-05T05:22:31;10.70;92.10
25622;DHT22;13487;39.360;22.962;2023-03-05T05:25:16;10.70;88.00
25622;DHT22;13487;39.360;22.962;2023-03-05T05:27:42;11.10;19.20
25622;DHT22;13487;39.360;22.962;2023-03-05T05:30:08;11.30;1.00
25622;DHT22;13487;39.360;22.962;2023-03-05T05:32:34;11.40;1.00
25622;DHT22;13487;39.360;22.962;2023-03-05T05:35:00;11.50;1.00
25622;DHT22;13487;39.360;22.962;2023-03-05T05:37:26;11.40;1.00
25622;DHT22;13487;39.360;22.962;2023-03-05T05:39:52;11.40;1.00
25622;DHT22;13487;39.360;22.962;2023-03-05T05:42:19;11.20;1.00
25622;DHT22;13487;39.360;22.962;2023-03-05T05:44:46;11.40;1.00
25622;DHT22;13487;39.360;22.962;2023-03-05T05:47:13;12.40;1.00
25622;DHT22;13487;39.360;22.962;2023-03-05T05:49:40;14.00;1.00
25622;DHT22;13487;39.360;22.962;2023-03-05T05:52:06;15.30;1.00
25622;DHT22;13487;39.360;22.962;2023-03-05T05:54:32;16.10;1.00
25622;DHT22;13487;39.360;22.962;2023-03-05T05:56:58;15.90;99.90
25622;DHT22;13487;39.360;22.962;2023-03-05T05:59:24;16.80;99.90
25622;DHT22;13487;39.360;22.962;2023-03-05T06:01:50;17.30;1.00
25622;DHT22;13487;39.360;22.962;2023-03-05T06:04:16;17.00;1.00
25622;DHT22;13487;39.360;22.962;2023-03-05T06:06:41;15.70;1.00
25622;DHT22;13487;39.360;22.962;2023-03-05T06:09:07;13.90;99.90
25622;DHT22;13487;39.360;22.962;2023-03-05T06:11:33;13.50;1.00
25622;DHT22;13487;39.360;22.962;2023-03-05T06:13:59;13.20;1.00
25622;DHT22;13487;39.360;22.962;2023-03-05T06:16:27;13.40;1.00
25622;DHT22;13487;39.360;22.962;2023-03-05T06:18:54;13.30;1.00
25622;DHT22;13487;39.360;22.962;2023-03-05T06:21:20;13.20;99.90
25622;DHT22;13487;39.360;22.962;2023-03-05T06:23:47;13.20;99.90
25622;DHT22;13487;39.360;22.962;2023-03-05T06:26:15;13.30;99.90
25622;DHT22;13487;39.360;22.962;2023-03-05T06:28:41;13.50;16.40
25622;DHT22;13487;39.360;22.962;2023-03-05T06:31:10;13.60;1.00
25622;DHT22;13487;39.360;22.962;2023-03-05T06:33:36;13.30;1.00
25622;DHT22;13487;39.360;22.962;2023-03-05T06:36:09;14.00;1.00
25622;DHT22;13487;39.360;22.962;2023-03-05T06:38:36;14.40;1.00
25622;DHT22;13487;39.360;22.962;2023-03-05T06:41:03;14.60;99.90
25622;DHT22;13487;39.360;22.962;2023-03-05T06:43:35;14.50;99.90
25622;DHT22;13487;39.360;22.962;2023-03-05T06:46:14;14.30;2.10
25622;DHT22;13487;39.360;22.962;2023-03-05T06:48:40;14.40;1.00
25622;DHT22;13487;39.360;22.962;2023-03-05T06:51:19;14.10;99.90
25622;DHT22;13487;39.360;22.962;2023-03-05T06:53:46;14.20;1.00
25622;DHT22;13487;39.360;22.962;2023-03-05T06:56:12;14.30;99.90
25622;DHT22;13487;39.360;22.962;2023-03-05T06:58:41;14.10;1.00
25622;DHT22;13487;39.360;22.962;2023-03-05T07:01:07;13.70;99.90
25622;DHT22;13487;39.360;22.962;2023-03-05T07:03:34;13.70;16.40
25622;DHT22;13487;39.360;22.962;2023-03-05T07:06:04;13.70;99.90
25622;DHT22;13487;39.360;22.962;2023-03-05T07:08:31;13.80;99.90
25622;DHT22;13487;39.360;22.962;2023-03-05T07:10:58;13.90;1.00
25622;DHT22;13487;39.360;22.962;2023-03-05T07:13:24;13.90;99.90
25622;DHT22;13487;39.360;22.962;2023-03-05T07:15:50;14.00;99.90
25622;DHT22;13487;39.360;22.962;2023-03-05T07:18:16;13.60;50.70
25622;DHT22;13487;39.360;22.962;2023-03-05T07:20:42;13.70;99.90
25622;DHT22;13487;39.360;22.962;2023-03-05T07:23:08;13.40;99.90
25622;DHT22;13487;39.360;22.962;2023-03-05T07:25:37;13.50;1.00
25622;DHT22;13487;39.360;22.962;2023-03-05T07:28:04;13.60;1.00
25622;DHT22;13487;39.360;22.962;2023-03-05T07:30:31;13.40;1.00
25622;DHT22;13487;39.360;22.962;2023-03-05T07:32:57;13.10;1.00
25622;DHT22;13487;39.360;22.962;2023-03-05T07:35:23;13.00;1.00
25622;DHT22;13487;39.360;22.962;2023-03-05T07:37:49;13.10;1.00
25622;DHT22;13487;39.360;22.962;2023-03-05T07:40:15;13.10;1.00
25622;DHT22;13487;39.360;22.962;2023-03-05T07:42:41;13.30;1.00
25622;DHT22;13487;39.360;22.962;2023-03-05T07:45:07;13.60;1.00
25622;DHT22;13487;39.360;22.962;2023-03-05T07:47:34;13.50;1.00
25622;DHT22;13487;39.360;22.962;2023-03-05T07:50:00;13.60;1.00
25622;DHT22;13487;39.360;22.962;2023-03-05T07:52:26;14.10;1.00
25622;DHT22;13487;39.360;22.962;2023-03-05T07:54:51;14.40;1.00
25622;DHT22;13487;39.360;22.962;2023-03-05T07:57:17;14.50;99.90
25622;DHT22;13487;39.360;22.962;2023-03-05T07:59:43;14.20;99.90
25622;DHT22;13487;39.360;22.962;2023-03-05T08:02:13;14.60;99.90
25622;DHT22;13487;39.360;22.962;2023-03-05T08:04:39;15.10;16.90
25622;DHT22;13487;39.360;22.962;2023-03-05T08:07:06;15.40;1.00
25622;DHT22;13487;39.360;22.962;2023-03-05T08:09:32;15.20;1.00
25622;DHT22;13487;39.360;22.962;2023-03-05T08:11:58;14.90;99.90
25622;DHT22;13487;39.360;22.962;2023-03-05T08:14:24;14.50;99.90
25622;DHT22;13487;39.360;22.962;2023-03-05T08:16:50;14.60;1.00
25622;DHT22;13487;39.360;22.962;2023-03-05T08:19:20;14.80;1.00
25622;DHT22;13487;39.360;22.962;2023-03-05T08:21:46;15.00;1.00
25622;DHT22;13487;39.360;22.962;2023-03-05T08:24:12;15.30;1.00
25622;DHT22;13487;39.360;22.962;2023-03-05T08:26:39;15.60;99.90
25622;DHT22;13487;39.360;22.962;2023-03-05T08:29:06;15.40;1.00
25622;DHT22;13487;39.360;22.962;2023-03-05T08:31:32;15.80;99.90
25622;DHT22;13487;39.360;22.962;2023-03-05T08:34:00;15.80;99.90
25622;DHT22;13487;39.360;22.962;2023-03-05T08:36:27;16.00;1.00
25622;DHT22;13487;39.360;22.962;2023-03-05T08:38:53;15.90;64.50
25622;DHT22;13487;39.360;22.962;2023-03-05T08:41:20;16.10;1.00
25622;DHT22;13487;39.360;22.962;2023-03-05T08:43:46;16.20;99.90
25622;DHT22;13487;39.360;22.962;2023-03-05T08:46:12;15.90;99.90
25622;DHT22;13487;39.360;22.962;2023-03-05T08:48:38;15.70;99.90
25622;DHT22;13487;39.360;22.962;2023-03-05T08:51:12;15.80;1.00
25622;DHT22;13487;39.360;22.962;2023-03-05T08:53:38;15.90;99.90
25622;DHT22;13487;39.360;22.962;2023-03-05T08:56:05;16.10;99.90
25622;DHT22;13487;39.360;22.962;2023-03-05T08:58:31;16.10;1.00
25622;DHT22;13487;39.360;22.962;2023-03-05T09:00:57;16.20;99.90
25622;DHT22;13487;39.360;22.962;2023-03-05T09:03:23;16.40;1.00
25622;DHT22;13487;39.360;22.962;2023-03-05T09:05:50;16.30;1.00
25622;DHT22;13487;39.360;22.962;2023-03-05T09:08:17;16.30;99.90
25622;DHT22;13487;39.360;22.962;2023-03-05T09:10:43;16.50;1.00
25622;DHT22;13487;39.360;22.962;2023-03-05T09:13:09;16.60;99.90
25622;DHT22;13487;39.360;22.962;2023-03-05T09:15:35;16.80;99.90
25622;DHT22;13487;39.360;22.962;2023-03-05T09:18:00;17.00;1.00
25622;DHT22;13487;39.360;22.962;2023-03-05T09:20:27;17.00;1.00
25622;DHT22;13487;39.360;22.962;2023-03-05T09:22:53;16.90;99.90
25622;DHT22;13487;39.360;22.962;2023-03-05T09:25:18;16.80;1.00
25622;DHT22;13487;39.360;22.962;2023-03-05T09:27:44;16.70;99.90
25622;DHT22;13487;39.360;22.962;2023-03-05T09:30:12;16.80;1.00
25622;DHT22;13487;39.360;22.962;2023-03-05T09:32:38;16.70;99.90
25622;DHT22;13487;39.360;22.962;2023-03-05T09:35:05;16.90;1.00
25622;DHT22;13487;39.360;22.962;2023-03-05T09:37:31;16.40;1.00
25622;DHT22;13487;39.360;22.962;2023-03-05T09:39:57;16.30;1.00
25622;DHT22;13487;39.360;22.962;2023-03-05T09:45:21;16.30;1.00
25622;DHT22;13487;39.360;22.962;2023-03-05T09:50:42;15.80;1.00
25622;DHT22;13487;39.360;22.962;2023-03-05T09:55:54;15.60;99.90
25622;DHT22;13487;39.360;22.962;2023-03-05T09:58:24;15.50;99.90
25622;DHT22;13487;39.360;22.962;2023-03-05T10:00:58;15.40;99.90
25622;DHT22;13487;39.360;22.962;2023-03-05T10:07:16;15.10;1.00
25622;DHT22;13487;39.360;22.962;2023-03-05T10:12:26;14.40;1.00
25622;DHT22;13487;39.360;22.962;2023-03-05T10:14:53;14.30;1.00
25622;DHT22;13487;39.360;22.962;2023-03-05T10:17:38;14.10;1.00
25622;DHT22;13487;39.360;22.962;2023-03-05T10:21:17;14.20;1.00
25622;DHT22;13487;39.360;22.962;2023-03-05T10:23:24;14.10;1.00
25622;DHT22;13487;39.360;22.962;2023-03-05T10:45:23;13.40;99.90
25622;DHT22;13487;39.360;22.962;2023-03-05T10:51:03;13.90;69.50
25622;DHT22;13487;39.360;22.962;2023-03-05T10:54:22;14.20;48.00
25622;DHT22;13487;39.360;22.962;2023-03-05T10:57:00;14.70;1.00
25622;DHT22;13487;39.360;22.962;2023-03-05T10:59:27;15.00;1.00
25622;DHT22;13487;39.360;22.962;2023-03-05T11:02:11;14.80;1.00
25622;DHT22;13487;39.360;22.962;2023-03-05T11:04:38;14.90;1.00
25622;DHT22;13487;39.360;22.962;2023-03-05T11:09:36;15.10;99.90
25622;DHT22;13487;39.360;22.962;2023-03-05T11:17:34;15.70;1.00
25622;DHT22;13487;39.360;22.962;2023-03-05T11:26:19;15.50;1.00
25622;DHT22;13487;39.360;22.962;2023-03-05T11:36:33;15.90;1.00
25622;DHT22;13487;39.360;22.962;2023-03-05T11:44:45;15.90;99.90
25622;DHT22;13487;39.360;22.962;2023-03-05T11:49:51;15.80;1.00
25622;DHT22;13487;39.360;22.962;2023-03-05T11:52:27;16.00;1.00
25622;DHT22;13487;39.360;22.962;2023-03-05T11:55:06;15.90;1.00
25622;DHT22;13487;39.360;22.962;2023-03-05T12:00:27;15.60;1.00
25622;DHT22;13487;39.360;22.962;2023-03-05T12:02:56;15.50;1.00
25622;DHT22;13487;39.360;22.962;2023-03-05T12:05:23;15.50;99.90
25622;DHT22;13487;39.360;22.962;2023-03-05T12:07:52;15.50;1.00
25622;DHT22;13487;39.360;22.962;2023-03-05T12:10:22;15.40;99.90
25622;DHT22;13487;39.360;22.962;2023-03-05T12:13:05;15.30;99.90
25622;DHT22;13487;39.360;22.962;2023-03-05T12:18:14;15.20;1.00
25622;DHT22;13487;39.360;22.962;2023-03-05T12:21:00;15.20;1.00
25622;DHT22;13487;39.360;22.962;2023-03-05T12:23:28;15.00;1.00
25622;DHT22;13487;39.360;22.962;2023-03-05T12:26:08;14.80;1.00
25622;DHT22;13487;39.360;22.962;2023-03-05T12:31:04;14.50;99.90
25622;DHT22;13487;39.360;22.962;2023-03-05T12:33:39;14.30;99.90
25622;DHT22;13487;39.360;22.962;2023-03-05T12:38:52;13.60;1.00
25622;DHT22;13487;39.360;22.962;2023-03-05T12:51:46;13.50;99.90
25622;DHT22;13487;39.360;22.962;2023-03-05T12:54:36;13.60;98.80
25622;DHT22;13487;39.360;22.962;2023-03-05T12:59:47;13.70;1.00
25622;DHT22;13487;39.360;22.962;2023-03-05T13:02:31;13.70;1.00
25622;DHT22;13487;39.360;22.962;2023-03-05T13:05:03;13.60;99.90
25622;DHT22;13487;39.360;22.962;2023-03-05T13:07:29;13.60;1.00
25622;DHT22;13487;39.360;22.962;2023-03-05T13:09:59;13.30;1.00
25622;DHT22;13487;39.360;22.962;2023-03-05T13:12:28;13.20;1.00
25622;DHT22;13487;39.360;22.962;2023-03-05T13:14:58;13.10;1.00
25622;DHT22;13487;39.360;22.962;2023-03-05T13:17:29;12.90;1.00
25622;DHT22;13487;39.360;22.962;2023-03-05T13:19:56;12.80;1.00
25622;DHT22;13487;39.360;22.962;2023-03-05T13:22:23;12.60;1.00
25622;DHT22;13487;39.360;22.962;2023-03-05T13:25:15;12.50;1.00
25622;DHT22;13487;39.360;22.962;2023-03-05T13:27:41;12.50;1.00
25622;DHT22;13487;39.360;22.962;2023-03-05T13:30:26;12.40;1.00
25622;DHT22;13487;39.360;22.962;2023-03-05T13:32:59;12.30;1.00
25622;DHT22;13487;39.360;22.962;2023-03-05T13:35:28;12.30;1.00
25622;DHT22;13487;39.360;22.962;2023-03-05T13:37:54;12.40;8.60
25622;DHT22;13487;39.360;22.962;2023-03-05T13:40:34;12.40;1.00
25622;DHT22;13487;39.360;22.962;2023-03-05T13:43:11;11.90;31.40
25622;DHT22;13487;39.360;22.962;2023-03-05T13:45:37;11.80;93.60
25622;DHT22;13487;39.360;22.962;2023-03-05T13:48:05;11.80;99.90
25622;DHT22;13487;39.360;22.962;2023-03-05T13:50:37;11.70;90.10
25622;DHT22;13487;39.360;22.962;2023-03-05T13:53:16;11.70;99.90
25622;DHT22;13487;39.360;22.962;2023-03-05T13:55:46;11.70;70.00
25622;DHT22;13487;39.360;22.962;2023-03-05T13:58:45;11.70;84.20
25622;DHT22;13487;39.360;22.962;2023-03-05T14:01:34;11.90;47.80
25622;DHT22;13487;39.360;22.962;2023-03-05T14:04:06;12.00;38.40
25622;DHT22;13487;39.360;22.962;2023-03-05T14:06:41;12.10;18.30
25622;DHT22;13487;39.360;22.962;2023-03-05T14:09:26;12.20;1.00
25622;DHT22;13487;39.360;22.962;2023-03-05T14:11:58;12.40;12.30
25622;DHT22;13487;39.360;22.962;2023-03-05T14:14:26;12.50;1.00
25622;DHT22;13487;39.360;22.962;2023-03-05T14:16:53;12.60;1.00
25622;DHT22;13487;39.360;22.962;2023-03-05T14:19:35;12.80;1.00
25622;DHT22;13487;39.360;22.962;2023-03-05T14:22:03;13.10;1.00
25622;DHT22;13487;39.360;22.962;2023-03-05T14:24:29;13.30;1.00
25622;DHT22;13487;39.360;22.962;2023-03-05T14:27:05;13.30;1.00
25622;DHT22;13487;39.360;22.962;2023-03-05T14:29:43;13.50;1.00
25622;DHT22;13487;39.360;22.962;2023-03-05T14:34:51;13.60;1.00
25622;DHT22;13487;39.360;22.962;2023-03-05T14:37:23;13.50;85.20
25622;DHT22;13487;39.360;22.962;2023-03-05T14:39:50;13.30;99.90
25622;DHT22;13487;39.360;22.962;2023-03-05T14:44:48;13.60;1.00
25622;DHT22;13487;39.360;22.962;2023-03-05T14:47:14;13.70;1.00
25622;DHT22;13487;39.360;22.962;2023-03-05T14:49:40;13.60;99.90
25622;DHT22;13487;39.360;22.962;2023-03-05T14:52:07;13.50;42.50
25622;DHT22;13487;39.360;22.962;2023-03-05T14:54:36;13.50;1.00
25622;DHT22;13487;39.360;22.962;2023-03-05T14:57:03;13.50;99.90
25622;DHT22;13487;39.360;22.962;2023-03-05T14:59:30;13.50;1.00
25622;DHT22;13487;39.360;22.962;2023-03-05T15:01:55;13.70;99.90
25622;DHT22;13487;39.360;22.962;2023-03-05T15:04:22;13.80;1.00
25622;DHT22;13487;39.360;22.962;2023-03-05T15:06:48;13.70;1.00
25622;DHT22;13487;39.360;22.962;2023-03-05T15:09:17;13.70;99.90
25622;DHT22;13487;39.360;22.962;2023-03-05T15:11:46;13.70;1.00
25622;DHT22;13487;39.360;22.962;2023-03-05T15:14:12;13.80;1.00
25622;DHT22;13487;39.360;22.962;2023-03-05T15:16:42;13.60;99.90
25622;DHT22;13487;39.360;22.962;2023-03-05T15:19:11;13.50;1.00
25622;DHT22;13487;39.360;22.962;2023-03-05T15:21:37;13.50;99.90
25622;DHT22;13487;39.360;22.962;2023-03-05T15:24:03;13.30;1.00
25622;DHT22;13487;39.360;22.962;2023-03-05T15:26:29;13.30;1.00
25622;DHT22;13487;39.360;22.962;2023-03-05T15:28:55;13.20;1.00
25622;DHT22;13487;39.360;22.962;2023-03-05T15:31:21;13.00;1.00
25622;DHT22;13487;39.360;22.962;2023-03-05T15:33:46;13.10;1.00
25622;DHT22;13487;39.360;22.962;2023-03-05T15:36:12;13.00;1.00
25622;DHT22;13487;39.360;22.962;2023-03-05T15:38:38;13.00;1.00
25622;DHT22;13487;39.360;22.962;2023-03-05T15:41:06;12.80;1.00
25622;DHT22;13487;39.360;22.962;2023-03-05T15:43:32;12.90;1.00
25622;DHT22;13487;39.360;22.962;2023-03-05T15:45:58;12.90;1.00
25622;DHT22;13487;39.360;22.962;2023-03-05T15:48:24;12.50;1.00
25622;DHT22;13487;39.360;22.962;2023-03-05T15:50:50;12.40;1.00
25622;DHT22;13487;39.360;22.962;2023-03-05T15:53:15;12.40;1.00
25622;DHT22;13487;39.360;22.962;2023-03-05T15:55:43;12.50;1.00
25622;DHT22;13487;39.360;22.962;2023-03-05T15:58:13;12.50;1.00
25622;DHT22;13487;39.360;22.962;2023-03-05T16:00:39;12.40;1.00
25622;DHT22;13487;39.360;22.962;2023-03-05T16:03:05;12.50;1.00
25622;DHT22;13487;39.360;22.962;2023-03-05T16:05:33;12.40;1.00
25622;DHT22;13487;39.360;22.962;2023-03-05T16:08:00;12.50;1.00
25622;DHT22;13487;39.360;22.962;2023-03-05T16:10:27;12.50;1.00
25622;DHT22;13487;39.360;22.962;2023-03-05T16:13:01;12.40;1.00
25622;DHT22;13487;39.360;22.962;2023-03-05T16:15:30;12.40;1.00
25622;DHT22;13487;39.360;22.962;2023-03-05T16:18:02;12.30;1.00
25622;DHT22;13487;39.360;22.962;2023-03-05T16:20:29;12.40;1.00
25622;DHT22;13487;39.360;22.962;2023-03-05T16:22:55;12.50;1.00
25622;DHT22;13487;39.360;22.962;2023-03-05T16:25:20;12.20;1.00
25622;DHT22;13487;39.360;22.962;2023-03-05T16:27:46;12.30;1.00
25622;DHT22;13487;39.360;22.962;2023-03-05T16:30:15;12.20;1.00
25622;DHT22;13487;39.360;22.962;2023-03-05T16:32:41;12.30;1.00
25622;DHT22;13487;39.360;22.962;2023-03-05T16:35:07;12.40;1.00
25622;DHT22;13487;39.360;22.962;2023-03-05T16:37:36;12.30;1.00
25622;DHT22;13487;39.360;22.962;2023-03-05T16:40:02;12.30;1.00
25622;DHT22;13487;39.360;22.962;2023-03-05T16:42:28;12.20;1.00
25622;DHT22;13487;39.360;22.962;2023-03-05T16:44:54;12.20;1.00
25622;DHT22;13487;39.360;22.962;2023-03-05T16:47:21;12.20;1.00
25622;DHT22;13487;39.360;22.962;2023-03-05T16:49:47;12.20;1.00
25622;DHT22;13487;39.360;22.962;2023-03-05T16:52:12;12.20;1.00
25622;DHT22;13487;39.360;22.962;2023-03-05T16:54:38;12.30;1.00
25622;DHT22;13487;39.360;22.962;2023-03-05T16:57:07;12.30;1.00
25622;DHT22;13487;39.360;22.962;2023-03-05T16:59:34;12.20;1.00
25622;DHT22;13487;39.360;22.962;2023-03-05T17:02:00;12.10;1.00
25622;DHT22;13487;39.360;22.962;2023-03-05T17:04:25;12.10;1.00
25622;DHT22;13487;39.360;22.962;2023-03-05T17:06:51;12.00;1.00
25622;DHT22;13487;39.360;22.962;2023-03-05T17:09:18;12.10;1.00
25622;DHT22;13487;39.360;22.962;2023-03-05T17:11:52;12.20;1.00